createdAt,value
2022-12-04T00:01:22.304Z,28.92
2022-12-04T00:03:57.005Z,53.17
2022-12-04T00:06:25.510Z,30.23
2022-12-04T00:08:53.658Z,54.63
2022-12-04T00:11:27.880Z,36.33
2022-12-04T00:13:55.660Z,55.92
2022-12-04T00:16:26.535Z,56.83
2022-12-04T00:18:54.549Z,56.40
2022-12-04T00:21:23.590Z,52.88
2022-12-04T00:23:51.204Z,60.85
2022-12-04T00:26:31.024Z,53.08
2022-12-04T00:28:58.804Z,52.70
2022-12-04T00:31:29.174Z,55.42
2022-12-04T00:33:56.684Z,35.08
2022-12-04T00:36:26.887Z,53.38
2022-12-04T00:38:54.462Z,51.83
2022-12-04T00:41:25.193Z,56.70
2022-12-04T00:43:53.085Z,53.83
2022-12-04T00:46:20.549Z,53.40
2022-12-04T00:48:47.709Z,53.38
2022-12-04T00:51:23.768Z,54.72
2022-12-04T00:53:52.528Z,56.10
2022-12-04T00:56:26.644Z,56.22
2022-12-04T00:58:56.948Z,54.22
2022-12-04T01:01:25.386Z,55.03
2022-12-04T01:03:52.671Z,54.28
2022-12-04T01:06:27.162Z,55.10
2022-12-04T01:08:56.151Z,56.63
2022-12-04T01:11:25.842Z,54.72
2022-12-04T01:13:53.438Z,55.72
2022-12-04T01:16:27.970Z,56.10
2022-12-04T01:18:55.213Z,55.40
2022-12-04T01:21:22.627Z,51.92
2022-12-04T01:23:49.941Z,53.88
2022-12-04T01:26:17.068Z,53.85
2022-12-04T01:28:44.304Z,55.45
2022-12-04T01:31:19.154Z,54.22
2022-12-04T01:33:47.577Z,55.28
2022-12-04T01:36:19.348Z,52.13
2022-12-04T01:38:47.035Z,55.78
2022-12-04T01:41:18.291Z,56.33
2022-12-04T01:43:45.361Z,56.05
2022-12-04T01:46:12.568Z,57.03
2022-12-04T01:48:54.045Z,56.13
2022-12-04T01:51:28.443Z,54.67
2022-12-04T01:54:01.704Z,55.22
2022-12-04T01:57:01.611Z,36.42
2022-12-04T01:59:35.697Z,54.80
2022-12-04T02:02:46.532Z,57.20
2022-12-04T02:05:18.282Z,53.08
2022-12-04T02:07:48.880Z,58.80
2022-12-04T02:10:24.602Z,52.53
2022-12-04T02:13:11.629Z,56.58
2022-12-04T02:15:59.044Z,57.83
2022-12-04T02:18:45.431Z,56.45
2022-12-04T02:21:24.598Z,55.35
2022-12-04T02:24:36.343Z,33.72
2022-12-04T02:27:09.149Z,59.17
2022-12-04T02:30:05.442Z,57.40
2022-12-04T02:33:09.937Z,55.70
2022-12-04T02:35:45.948Z,56.63
2022-12-04T02:41:18.977Z,33.83
2022-12-04T02:44:03.568Z,56.55
2022-12-04T02:46:46.618Z,55.65
2022-12-04T02:49:26.157Z,57.08
2022-12-04T02:51:55.777Z,56.72
2022-12-04T02:54:32.712Z,54.55
2022-12-04T02:57:02.188Z,58.83
2022-12-04T02:59:43.035Z,57.92
2022-12-04T03:02:18.617Z,56.90
2022-12-04T03:04:50.660Z,57.90
2022-12-04T03:07:31.879Z,58.67
2022-12-04T03:10:07.152Z,59.75
2022-12-04T03:12:44.537Z,59.53
2022-12-04T03:15:28.318Z,58.10
2022-12-04T03:18:15.311Z,59.75
2022-12-04T03:20:45.092Z,57.72
2022-12-04T03:23:18.937Z,58.47
2022-12-04T03:26:01.431Z,58.88
2022-12-04T03:28:49.217Z,57.58
2022-12-04T03:31:24.948Z,32.47
2022-12-04T03:33:56.355Z,60.25
2022-12-04T03:36:30.266Z,58.78
2022-12-04T03:39:13.018Z,57.72
2022-12-04T03:41:49.951Z,57.53
2022-12-04T03:44:25.347Z,58.05
2022-12-04T03:47:07.655Z,57.20
2022-12-04T03:50:00.703Z,31.15
2022-12-04T03:52:36.850Z,58.67
2022-12-04T03:55:38.883Z,60.53
2022-12-04T03:58:13.729Z,60.22
2022-12-04T04:00:44.164Z,62.80
2022-12-04T04:03:25.209Z,58.95
2022-12-04T04:06:00.464Z,62.25
2022-12-04T04:08:34.964Z,61.80
2022-12-04T04:11:23.733Z,32.95
2022-12-04T04:14:47.004Z,57.70
2022-12-04T04:17:38.859Z,24.05
2022-12-04T04:20:31.951Z,63.33
2022-12-04T04:23:20.660Z,63.35
2022-12-04T04:25:47.928Z,61.55
2022-12-04T04:28:32.713Z,62.38
2022-12-04T04:31:31.088Z,63.95
2022-12-04T04:34:05.919Z,64.53
2022-12-04T04:37:01.963Z,62.45
2022-12-04T04:39:41.250Z,71.93
2022-12-04T04:42:58.462Z,66.13
2022-12-04T04:45:39.462Z,65.50
2022-12-04T04:48:58.147Z,67.05
2022-12-04T04:51:28.443Z,65.85
2022-12-04T04:53:59.285Z,31.92
2022-12-04T04:56:26.911Z,65.30
2022-12-04T04:58:54.031Z,64.57
2022-12-04T05:01:25.271Z,65.35
2022-12-04T05:03:52.670Z,64.40
2022-12-04T05:06:19.662Z,36.63
2022-12-04T05:08:49.111Z,63.95
2022-12-04T05:11:17.367Z,64.05
2022-12-04T05:13:44.617Z,63.95
2022-12-04T05:16:15.255Z,65.47
2022-12-04T05:19:05.367Z,66.25
2022-12-04T05:21:33.393Z,62.35
2022-12-04T05:24:00.745Z,62.80
2022-12-04T05:26:27.793Z,64.63
2022-12-04T05:28:54.777Z,64.20
2022-12-04T05:31:21.930Z,60.97
2022-12-04T05:33:49.028Z,61.17
2022-12-04T05:36:16.031Z,60.28
2022-12-04T05:38:43.057Z,65.20
2022-12-04T05:41:10.663Z,63.35
2022-12-04T05:43:38.207Z,62.22
2022-12-04T05:46:08.300Z,65.32
2022-12-04T05:48:36.299Z,62.53
2022-12-04T05:51:08.975Z,63.58
2022-12-04T05:53:37.127Z,36.63
2022-12-04T05:56:06.318Z,62.33
2022-12-04T05:58:38.748Z,59.85
2022-12-04T06:01:21.592Z,59.67
2022-12-04T06:03:48.680Z,61.03
2022-12-04T06:06:24.395Z,61.53
2022-12-04T06:08:54.315Z,60.88
2022-12-04T06:11:26.102Z,60.10
2022-12-04T06:13:53.762Z,59.15
2022-12-04T06:16:37.945Z,60.85
2022-12-04T06:19:13.071Z,60.97
2022-12-04T06:21:41.879Z,61.30
2022-12-04T06:24:16.504Z,62.42
2022-12-04T06:27:11.244Z,60.03
2022-12-04T06:29:32.848Z,59.53
2022-12-04T06:32:00.110Z,32.40
2022-12-04T06:34:27.169Z,59.10
2022-12-04T06:36:54.404Z,60.03
2022-12-04T06:39:21.493Z,58.45
2022-12-04T06:41:48.647Z,59.17
2022-12-04T06:44:15.892Z,60.00
2022-12-04T06:46:46.763Z,58.50
2022-12-04T06:49:14.832Z,60.15
2022-12-04T06:51:42.082Z,62.80
2022-12-04T06:54:10.152Z,59.45
2022-12-04T06:56:37.094Z,59.47
2022-12-04T06:59:04.441Z,60.42
2022-12-04T07:01:34.197Z,61.13
2022-12-04T07:04:03.979Z,59.42
2022-12-04T07:06:37.343Z,60.08
2022-12-04T07:09:11.360Z,62.58
2022-12-04T07:11:39.997Z,61.78
2022-12-04T07:14:07.593Z,62.88
2022-12-04T07:16:40.455Z,59.22
2022-12-04T07:19:10.757Z,61.72
2022-12-04T07:21:37.856Z,61.10
2022-12-04T07:24:05.317Z,60.97
2022-12-04T07:26:32.779Z,65.70
2022-12-04T07:29:00.397Z,62.65
2022-12-04T07:31:29.733Z,62.65
2022-12-04T07:33:58.040Z,34.70
2022-12-04T07:36:26.659Z,61.35
2022-12-04T07:38:56.432Z,33.72
2022-12-04T07:41:23.894Z,58.72
2022-12-04T07:43:51.073Z,62.92
2022-12-04T07:46:23.196Z,62.55
2022-12-04T07:48:50.510Z,66.03
2022-12-04T07:51:23.846Z,61.47
2022-12-04T07:53:53.157Z,61.63
2022-12-04T07:56:21.068Z,65.45
2022-12-04T07:58:48.546Z,61.63
2022-12-04T08:01:22.078Z,63.00
2022-12-04T08:03:52.751Z,66.75
2022-12-04T08:06:23.068Z,64.10
2022-12-04T08:08:52.062Z,61.83
2022-12-04T08:11:23.062Z,62.22
2022-12-04T08:13:58.918Z,63.15
2022-12-04T08:18:55.528Z,63.13
2022-12-04T08:21:26.996Z,63.25
2022-12-04T08:23:56.774Z,60.25
2022-12-04T08:26:26.406Z,62.70
2022-12-04T08:28:55.885Z,60.83
2022-12-04T08:31:26.596Z,61.50
2022-12-04T08:33:57.536Z,62.70
2022-12-04T08:36:25.104Z,61.95
2022-12-04T08:38:52.406Z,63.13
2022-12-04T08:41:24.111Z,62.22
2022-12-04T08:43:54.679Z,60.42
2022-12-04T08:46:23.064Z,60.83
2022-12-04T08:48:50.274Z,62.63
2022-12-04T08:51:25.201Z,32.55
2022-12-04T08:53:58.418Z,62.80
2022-12-04T08:56:27.499Z,63.38
2022-12-04T08:58:56.604Z,61.15
2022-12-04T09:01:23.949Z,36.88
2022-12-04T09:03:51.241Z,64.88
2022-12-04T09:06:18.783Z,63.95
2022-12-04T09:08:45.967Z,60.50
2022-12-04T09:11:20.271Z,60.75
2022-12-04T09:13:47.875Z,66.53
2022-12-04T09:16:19.674Z,67.25
2022-12-04T09:18:47.473Z,62.97
2022-12-04T09:21:17.766Z,65.45
2022-12-04T09:23:45.883Z,69.20
2022-12-04T09:26:25.489Z,64.18
2022-12-04T09:28:54.500Z,64.63
2022-12-04T09:31:23.476Z,69.00
2022-12-04T09:33:51.171Z,66.57
2022-12-04T09:36:18.678Z,34.58
2022-12-04T09:38:49.796Z,61.63
2022-12-04T09:41:53.278Z,62.60
2022-12-04T09:44:40.871Z,61.03
2022-12-04T09:47:29.405Z,65.07
2022-12-04T09:50:17.263Z,64.22
2022-12-04T09:53:04.759Z,62.45
2022-12-04T09:55:47.822Z,59.30
2022-12-04T09:58:46.780Z,61.75
2022-12-04T10:01:21.525Z,34.00
2022-12-04T10:03:49.203Z,57.92
2022-12-04T10:06:41.110Z,58.03
2022-12-04T10:09:56.578Z,58.15
2022-12-04T10:12:55.516Z,32.72
2022-12-04T10:15:37.578Z,54.88
2022-12-04T10:18:30.038Z,52.25
2022-12-04T10:21:49.796Z,27.88
2022-12-04T10:24:51.499Z,54.80
2022-12-04T10:27:28.398Z,50.45
2022-12-04T10:30:03.894Z,50.42
2022-12-04T10:32:34.198Z,52.13
2022-12-04T10:35:24.962Z,35.53
2022-12-04T10:38:00.331Z,48.85
2022-12-04T10:40:52.294Z,47.72
2022-12-04T10:43:44.640Z,48.95
2022-12-04T10:46:23.484Z,47.15
2022-12-04T10:48:58.503Z,47.60
2022-12-04T10:51:25.922Z,49.45
2022-12-04T10:53:53.575Z,48.65
2022-12-04T10:56:24.255Z,44.53
2022-12-04T10:59:04.623Z,44.75
2022-12-04T11:01:34.383Z,43.10
2022-12-04T11:04:10.109Z,45.88
2022-12-04T11:06:38.167Z,44.15
2022-12-04T11:09:05.657Z,41.00
2022-12-04T11:11:35.436Z,40.97
2022-12-04T11:14:22.654Z,42.35
2022-12-04T11:17:05.201Z,38.38
2022-12-04T11:19:36.271Z,39.72
2022-12-04T11:22:19.949Z,39.55
2022-12-04T11:25:05.282Z,38.30
2022-12-04T11:27:34.972Z,36.38
2022-12-04T11:30:09.407Z,36.20
2022-12-04T11:32:38.416Z,35.50
2022-12-04T11:35:29.977Z,36.10
2022-12-04T11:38:18.660Z,33.80
2022-12-04T11:40:53.219Z,32.42
2022-12-04T11:43:22.309Z,32.78
2022-12-04T11:45:56.484Z,30.48
2022-12-04T11:48:24.361Z,30.40
2022-12-04T11:51:27.516Z,31.00
2022-12-04T11:54:26.463Z,32.70
2022-12-04T11:57:37.778Z,31.63
2022-12-04T12:00:17.561Z,30.90
2022-12-04T12:03:10.261Z,34.50
2022-12-04T12:06:05.256Z,32.47
2022-12-04T12:09:09.997Z,33.88
2022-12-04T12:11:57.278Z,36.20
2022-12-04T12:14:58.719Z,33.53
2022-12-04T12:17:40.775Z,30.63
2022-12-04T12:20:11.053Z,33.40
2022-12-04T12:22:57.002Z,33.13
2022-12-04T12:25:58.458Z,31.27
2022-12-04T12:28:52.678Z,32.92
2022-12-04T12:31:49.200Z,35.75
2022-12-04T12:34:44.397Z,31.63
2022-12-04T12:37:17.220Z,32.63
2022-12-04T12:40:03.896Z,32.00
2022-12-04T12:42:52.539Z,31.75
2022-12-04T12:45:47.985Z,30.65
2022-12-04T12:48:56.531Z,32.35
2022-12-04T12:51:37.943Z,31.48
2022-12-04T12:54:16.737Z,31.45
2022-12-04T12:56:51.383Z,31.02
2022-12-04T12:59:24.415Z,32.45
2022-12-04T13:02:14.893Z,31.90
2022-12-04T13:04:45.464Z,30.17
2022-12-04T13:07:18.458Z,31.00
2022-12-04T13:09:55.240Z,29.85
2022-12-04T13:12:23.937Z,31.92
2022-12-04T13:14:51.043Z,30.42
2022-12-04T13:17:39.609Z,30.20
2022-12-04T13:20:16.232Z,29.45
2022-12-04T13:23:37.855Z,29.23
2022-12-04T13:26:36.043Z,28.90
2022-12-04T13:29:12.557Z,29.80
2022-12-04T13:31:49.212Z,28.63
2022-12-04T13:34:57.529Z,28.25
2022-12-04T13:37:43.560Z,29.00
2022-12-04T13:40:54.132Z,29.88
2022-12-04T13:43:47.072Z,28.33
2022-12-04T13:46:34.168Z,29.33
2022-12-04T13:49:38.117Z,28.67
2022-12-04T13:52:22.392Z,30.30
2022-12-04T13:55:00.380Z,30.15
2022-12-04T13:57:28.323Z,31.90
2022-12-04T14:00:08.552Z,34.38
2022-12-04T14:02:51.645Z,33.15
2022-12-04T14:05:40.949Z,29.55
2022-12-04T14:08:29.612Z,31.50
2022-12-04T14:11:08.984Z,31.48
2022-12-04T14:13:55.154Z,31.88
2022-12-04T14:16:39.125Z,34.15
2022-12-04T14:19:07.516Z,33.72
2022-12-04T14:21:42.417Z,35.50
2022-12-04T14:24:31.916Z,33.85
2022-12-04T14:27:14.607Z,35.30
2022-12-04T14:29:50.059Z,33.50
2022-12-04T14:32:23.916Z,34.60
2022-12-04T14:34:51.479Z,34.65
2022-12-04T14:37:41.951Z,34.88
2022-12-04T14:40:26.133Z,31.45
2022-12-04T14:42:54.567Z,33.63
2022-12-04T14:45:37.545Z,34.22
2022-12-04T14:48:28.798Z,32.22
2022-12-04T14:51:04.600Z,32.90
2022-12-04T14:53:53.090Z,34.88
2022-12-04T14:56:35.636Z,35.70
2022-12-04T14:59:26.169Z,31.83
2022-12-04T15:01:55.096Z,34.88
2022-12-04T15:04:29.681Z,34.55
2022-12-04T15:07:00.624Z,36.13
2022-12-04T15:09:46.878Z,34.45
2022-12-04T15:12:33.873Z,38.53
2022-12-04T15:15:19.355Z,34.30
2022-12-04T15:18:09.698Z,34.53
2022-12-04T15:20:48.758Z,33.60
2022-12-04T15:23:25.125Z,35.15
2022-12-04T15:25:58.699Z,33.88
2022-12-04T15:28:36.146Z,36.22
2022-12-04T15:31:06.850Z,37.70
2022-12-04T15:33:37.363Z,34.78
2022-12-04T15:36:45.755Z,34.20
2022-12-04T15:39:29.688Z,35.13
2022-12-04T15:42:19.089Z,34.95
2022-12-04T15:44:55.686Z,35.92
2022-12-04T15:47:25.977Z,35.90
2022-12-04T15:49:53.113Z,33.55
2022-12-04T15:52:23.372Z,33.53
2022-12-04T15:55:01.077Z,35.42
2022-12-04T15:57:30.472Z,34.35
2022-12-04T16:00:01.390Z,34.97
2022-12-04T16:02:31.277Z,31.17
2022-12-04T16:04:59.317Z,32.22
2022-12-04T16:07:29.538Z,32.03
2022-12-04T16:10:03.560Z,33.03
2022-12-04T16:12:32.912Z,33.50
2022-12-04T16:15:00.193Z,34.70
2022-12-04T16:17:33.815Z,34.20
2022-12-04T16:20:04.886Z,31.65
2022-12-04T16:22:32.507Z,31.85
2022-12-04T16:25:00.086Z,31.58
2022-12-04T16:27:27.426Z,32.50
2022-12-04T16:29:54.541Z,33.58
2022-12-04T16:32:27.213Z,33.47
2022-12-04T16:34:55.146Z,32.35
2022-12-04T16:37:23.976Z,34.78
2022-12-04T16:39:51.262Z,33.50
2022-12-04T16:42:29.293Z,35.80
2022-12-04T16:44:56.813Z,34.58
2022-12-04T16:47:24.000Z,35.78
2022-12-04T16:49:52.102Z,36.75
2022-12-04T16:52:20.633Z,39.80
2022-12-04T16:54:48.093Z,39.72
2022-12-04T16:57:15.273Z,37.65
2022-12-04T16:59:42.517Z,42.47
2022-12-04T17:02:18.125Z,39.47
2022-12-04T17:04:45.242Z,40.75
2022-12-04T17:07:12.352Z,41.60
2022-12-04T17:09:39.519Z,43.08
2022-12-04T17:12:06.810Z,42.05
2022-12-04T17:14:33.963Z,41.45
2022-12-04T17:17:02.521Z,39.83
2022-12-04T17:19:29.696Z,42.20
2022-12-04T17:21:58.198Z,41.88
2022-12-04T17:24:25.208Z,40.53
2022-12-04T17:26:52.336Z,40.05
2022-12-04T17:29:19.279Z,41.28
2022-12-04T17:31:46.487Z,39.63
2022-12-04T17:34:13.508Z,42.28
2022-12-04T17:36:40.803Z,42.90
2022-12-04T17:39:11.585Z,40.08
2022-12-04T17:41:38.733Z,40.58
2022-12-04T17:44:06.196Z,39.78
2022-12-04T17:46:33.467Z,40.03
2022-12-04T17:49:06.611Z,39.03
2022-12-04T17:51:35.740Z,38.15
2022-12-04T17:54:03.091Z,38.67
2022-12-04T17:56:30.637Z,39.42
2022-12-04T17:58:57.798Z,40.75
2022-12-04T18:01:28.754Z,40.10
2022-12-04T18:03:59.994Z,38.97
2022-12-04T18:06:34.322Z,37.88
2022-12-04T18:09:02.260Z,38.15
2022-12-04T18:11:33.111Z,36.20
2022-12-04T18:14:11.895Z,38.88
2022-12-04T18:16:48.057Z,38.70
2022-12-04T18:19:15.502Z,36.83
2022-12-04T18:21:42.614Z,36.05
2022-12-04T18:24:10.123Z,35.90
2022-12-04T18:26:41.399Z,36.72
2022-12-04T18:29:11.259Z,37.40
2022-12-04T18:31:38.957Z,37.47
2022-12-04T18:34:07.410Z,36.80
2022-12-04T18:36:36.597Z,38.50
2022-12-04T18:39:08.280Z,36.97
2022-12-04T18:41:35.705Z,36.50
2022-12-04T18:44:03.552Z,39.95
2022-12-04T18:46:31.215Z,36.75
2022-12-04T18:48:59.010Z,39.58
2022-12-04T18:51:33.486Z,37.13
2022-12-04T18:54:11.786Z,40.22
2022-12-04T18:56:39.481Z,36.10
2022-12-04T18:59:13.459Z,39.60
2022-12-04T19:01:41.911Z,40.22
2022-12-04T19:04:11.560Z,39.13
2022-12-04T19:06:42.749Z,39.83
2022-12-04T19:09:18.268Z,38.83
2022-12-04T19:11:46.556Z,35.42
2022-12-04T19:14:23.099Z,38.40
2022-12-04T19:16:51.879Z,40.40
2022-12-04T19:19:19.237Z,38.67
2022-12-04T19:21:46.435Z,37.40
2022-12-04T19:24:14.078Z,39.55
2022-12-04T19:26:41.422Z,38.33
2022-12-04T19:29:08.665Z,37.38
2022-12-04T19:31:37.527Z,39.33
2022-12-04T19:34:06.198Z,37.90
2022-12-04T19:36:35.324Z,35.47
2022-12-04T19:39:04.544Z,33.20
2022-12-04T19:41:34.439Z,35.00
2022-12-04T19:44:14.666Z,33.15
2022-12-04T19:46:50.400Z,33.65
2022-12-04T19:49:17.571Z,34.20
2022-12-04T19:51:44.973Z,33.70
2022-12-04T19:54:13.567Z,32.17
2022-12-04T19:56:41.745Z,32.22
2022-12-04T19:59:09.039Z,30.75
2022-12-04T20:01:36.400Z,28.73
2022-12-04T20:04:07.388Z,30.30
2022-12-04T20:06:44.330Z,31.35
2022-12-04T20:09:15.817Z,35.20
2022-12-04T20:11:42.962Z,32.85
2022-12-04T20:14:10.729Z,34.92
2022-12-04T20:16:38.862Z,36.42
2022-12-04T20:19:09.013Z,34.38
2022-12-04T20:21:36.130Z,36.10
2022-12-04T20:24:06.148Z,36.22
2022-12-04T20:26:38.210Z,35.72
2022-12-04T20:29:09.289Z,34.92
2022-12-04T20:31:39.437Z,37.45
2022-12-04T20:34:11.836Z,35.60
2022-12-04T20:36:43.721Z,35.65
2022-12-04T20:39:13.064Z,35.60
2022-12-04T20:41:40.881Z,34.80
2022-12-04T20:44:13.165Z,35.33
2022-12-04T20:46:42.369Z,36.53
2022-12-04T20:49:20.787Z,37.97
2022-12-04T20:51:51.034Z,37.30
2022-12-04T20:54:20.865Z,37.53
2022-12-04T20:56:49.721Z,35.85
2022-12-04T20:59:19.083Z,37.50
2022-12-04T21:01:48.968Z,36.88
2022-12-04T21:04:18.013Z,38.10
2022-12-04T21:06:46.922Z,35.00
2022-12-04T21:09:20.923Z,36.70
2022-12-04T21:11:54.623Z,36.13
2022-12-04T21:14:49.616Z,36.33
2022-12-04T21:17:19.481Z,36.70
2022-12-04T21:19:50.161Z,38.40
2022-12-04T21:22:19.148Z,36.40
2022-12-04T21:24:46.632Z,35.00
2022-12-04T21:27:20.434Z,34.35
2022-12-04T21:29:49.499Z,34.65
2022-12-04T21:32:18.706Z,36.28
2022-12-04T21:34:45.855Z,33.20
2022-12-04T21:37:13.188Z,35.92
2022-12-04T21:39:41.876Z,32.03
2022-12-04T21:42:27.237Z,33.65
2022-12-04T21:44:54.334Z,38.05
2022-12-04T21:47:21.563Z,34.72
2022-12-04T21:49:48.596Z,38.03
2022-12-04T21:52:17.022Z,38.97
2022-12-04T21:54:44.353Z,38.10
2022-12-04T21:57:11.404Z,38.47
2022-12-04T21:59:38.402Z,37.40
2022-12-04T22:02:05.506Z,36.17
2022-12-04T22:04:32.937Z,38.90
2022-12-04T22:07:00.017Z,36.92
2022-12-04T22:09:27.291Z,38.90
2022-12-04T22:11:54.411Z,37.75
2022-12-04T22:14:21.686Z,37.17
2022-12-04T22:16:53.015Z,39.17
2022-12-04T22:19:20.303Z,36.75
2022-12-04T22:21:47.458Z,35.33
2022-12-04T22:24:14.515Z,35.28
2022-12-04T22:26:41.503Z,37.53
2022-12-04T22:29:34.110Z,35.92
2022-12-04T22:31:56.008Z,34.88
2022-12-04T22:34:24.189Z,33.70
2022-12-04T22:36:51.412Z,35.67
2022-12-04T22:39:18.607Z,36.88
2022-12-04T22:41:46.062Z,34.70
2022-12-04T22:44:13.078Z,36.75
2022-12-04T22:46:40.258Z,35.28
2022-12-04T22:49:07.473Z,32.50
2022-12-04T22:51:34.439Z,32.30
2022-12-04T22:54:01.859Z,33.50
2022-12-04T22:56:31.572Z,35.38
2022-12-04T22:59:00.133Z,36.70
2022-12-04T23:01:30.242Z,35.88
2022-12-04T23:03:57.854Z,32.55
2022-12-04T23:06:28.931Z,30.45
2022-12-04T23:09:07.399Z,33.78
2022-12-04T23:11:35.945Z,30.75
2022-12-04T23:14:06.279Z,30.50
2022-12-04T23:16:36.934Z,31.05
2022-12-04T23:19:06.532Z,34.67
2022-12-04T23:21:34.607Z,31.63
2022-12-04T23:24:02.065Z,29.80
2022-12-04T23:26:39.701Z,28.13
2022-12-04T23:29:18.272Z,30.75
2022-12-04T23:31:54.540Z,29.55
2022-12-04T23:34:21.805Z,29.95
2022-12-04T23:36:48.774Z,30.48
2022-12-04T23:39:15.856Z,29.73
2022-12-04T23:41:43.011Z,30.23
2022-12-04T23:44:10.114Z,29.95
2022-12-04T23:46:37.259Z,28.15
2022-12-04T23:49:04.357Z,28.17
2022-12-04T23:51:31.552Z,28.70
2022-12-04T23:53:59.204Z,29.50
2022-12-04T23:56:27.993Z,26.50
2022-12-04T23:58:57.323Z,28.25
